createdAt,value
2023-02-27T00:01:47.444Z,81.02
2023-02-27T00:04:52.386Z,80.46
2023-02-27T00:07:58.813Z,79.96
2023-02-27T00:11:07.825Z,80.09
2023-02-27T00:14:14.137Z,79.97
2023-02-27T00:17:20.779Z,79.51
2023-02-27T00:20:27.861Z,79.48
2023-02-27T00:23:35.159Z,78.88
2023-02-27T00:26:42.042Z,77.65
2023-02-27T00:29:52.124Z,77.11
2023-02-27T00:32:58.980Z,76.73
2023-02-27T00:36:06.584Z,75.96
2023-02-27T00:39:14.672Z,75.85
2023-02-27T00:42:20.634Z,75.58
2023-02-27T00:45:28.362Z,75.34
2023-02-27T00:48:35.740Z,74.98
2023-02-27T00:51:43.122Z,75.10
2023-02-27T00:54:50.033Z,74.71
2023-02-27T00:57:57.747Z,74.30
2023-02-27T01:01:02.399Z,74.52
2023-02-27T01:04:07.062Z,74.55
2023-02-27T01:07:11.584Z,74.28
2023-02-27T01:10:15.812Z,74.04
2023-02-27T01:13:19.420Z,73.44
2023-02-27T01:16:23.593Z,72.76
2023-02-27T01:19:28.183Z,73.07
2023-02-27T01:22:34.008Z,71.57
2023-02-27T01:25:37.145Z,70.06
2023-02-27T01:28:42.441Z,70.45
2023-02-27T01:31:49.641Z,69.33
2023-02-27T01:34:53.238Z,68.81
2023-02-27T01:37:58.654Z,67.48
2023-02-27T01:41:08.258Z,67.70
2023-02-27T01:44:16.258Z,68.26
2023-02-27T01:47:20.553Z,68.23
2023-02-27T01:50:25.482Z,68.02
2023-02-27T01:53:31.767Z,68.32
2023-02-27T01:56:35.257Z,68.11
2023-02-27T01:59:42.502Z,68.10
2023-02-27T02:02:57.614Z,67.66
2023-02-27T02:06:04.010Z,67.67
2023-02-27T02:09:09.398Z,67.46
2023-02-27T02:12:15.876Z,66.16
2023-02-27T02:15:22.495Z,66.98
2023-02-27T02:18:46.181Z,65.45
2023-02-27T02:22:27.490Z,65.12
2023-02-27T02:25:52.159Z,63.76
2023-02-27T02:29:31.281Z,62.39
2023-02-27T02:33:08.106Z,61.61
2023-02-27T02:36:34.881Z,62.01
2023-02-27T02:39:57.094Z,61.95
2023-02-27T02:43:21.050Z,61.81
2023-02-27T02:46:31.596Z,60.57
2023-02-27T02:49:36.742Z,59.94
2023-02-27T02:53:11.052Z,61.98
2023-02-27T02:56:35.762Z,62.84
2023-02-27T02:59:50.271Z,63.05
2023-02-27T03:03:00.491Z,61.99
2023-02-27T03:06:33.687Z,60.17
2023-02-27T03:09:43.875Z,58.94
2023-02-27T03:13:16.706Z,60.16
2023-02-27T03:16:20.568Z,61.16
2023-02-27T03:19:29.782Z,62.91
2023-02-27T03:22:37.623Z,63.47
2023-02-27T03:25:46.677Z,63.10
2023-02-27T03:29:18.148Z,61.90
2023-02-27T03:32:43.190Z,61.85
2023-02-27T03:36:13.635Z,60.22
2023-02-27T03:39:31.351Z,57.97
2023-02-27T03:43:03.517Z,57.74
2023-02-27T03:46:19.136Z,56.06
2023-02-27T03:49:25.523Z,54.33
2023-02-27T03:52:31.166Z,54.18
2023-02-27T03:55:38.615Z,53.78
2023-02-27T03:58:42.263Z,52.07
2023-02-27T04:01:46.265Z,53.88
2023-02-27T04:04:50.033Z,57.33
2023-02-27T04:08:20.155Z,59.88
2023-02-27T04:11:42.867Z,59.98
2023-02-27T04:14:58.693Z,61.09
2023-02-27T04:18:42.192Z,61.26
2023-02-27T04:22:08.570Z,58.54
2023-02-27T04:25:46.703Z,56.27
2023-02-27T04:28:57.347Z,56.12
2023-02-27T04:32:03.209Z,54.97
2023-02-27T04:35:38.502Z,57.37
2023-02-27T04:38:48.657Z,59.12
2023-02-27T04:41:58.237Z,57.80
2023-02-27T04:45:05.670Z,60.24
2023-02-27T04:48:29.589Z,61.60
2023-02-27T04:51:57.566Z,63.07
2023-02-27T04:55:07.200Z,64.81
2023-02-27T04:58:25.788Z,65.16
2023-02-27T05:01:58.526Z,63.93
2023-02-27T05:05:07.160Z,61.88
2023-02-27T05:08:24.310Z,60.68
2023-02-27T05:11:35.344Z,58.51
2023-02-27T05:14:50.219Z,58.99
2023-02-27T05:18:00.510Z,58.24
2023-02-27T05:21:12.931Z,58.53
2023-02-27T05:25:07.757Z,53.66
2023-02-27T05:28:38.843Z,49.23
2023-02-27T05:31:51.494Z,48.23
2023-02-27T05:34:57.670Z,48.38
2023-02-27T05:38:13.554Z,48.62
2023-02-27T05:41:48.583Z,49.00
2023-02-27T05:45:02.676Z,49.09
2023-02-27T05:48:15.212Z,48.46
2023-02-27T05:51:22.207Z,48.07
2023-02-27T05:55:09.029Z,48.06
2023-02-27T05:58:20.528Z,47.47
2023-02-27T06:01:25.493Z,48.07
2023-02-27T06:04:29.522Z,48.14
2023-02-27T06:07:33.321Z,48.33
2023-02-27T06:10:37.687Z,47.71
2023-02-27T06:13:42.341Z,47.23
2023-02-27T06:16:46.151Z,45.83
2023-02-27T06:19:50.425Z,45.35
2023-02-27T06:22:53.716Z,45.13
2023-02-27T06:25:57.623Z,43.41
2023-02-27T06:29:01.206Z,42.43
2023-02-27T06:32:04.282Z,40.66
2023-02-27T06:35:10.577Z,40.88
2023-02-27T06:38:14.656Z,40.71
2023-02-27T06:41:17.808Z,40.30
2023-02-27T06:44:21.217Z,41.43
2023-02-27T06:47:24.466Z,41.31
2023-02-27T06:50:28.284Z,41.99
2023-02-27T06:53:31.909Z,40.83
2023-02-27T06:56:35.659Z,41.82
2023-02-27T06:59:38.847Z,42.29
2023-02-27T07:02:43.170Z,41.22
2023-02-27T07:05:46.212Z,41.57
2023-02-27T07:09:02.086Z,41.73
2023-02-27T07:12:10.736Z,41.88
2023-02-27T07:15:14.754Z,40.14
2023-02-27T07:18:17.970Z,39.54
2023-02-27T07:21:21.866Z,39.26
2023-02-27T07:24:25.614Z,39.67
2023-02-27T07:27:29.016Z,39.57
2023-02-27T07:30:32.820Z,40.02
2023-02-27T07:33:36.417Z,39.52
2023-02-27T07:36:41.008Z,39.62
2023-02-27T07:39:45.635Z,39.64
2023-02-27T07:42:53.224Z,39.54
2023-02-27T07:45:58.387Z,39.48
2023-02-27T07:49:02.725Z,39.20
2023-02-27T07:52:08.183Z,37.80
2023-02-27T07:55:13.573Z,36.51
2023-02-27T07:58:17.437Z,36.69
2023-02-27T08:01:21.790Z,37.09
2023-02-27T08:04:26.849Z,36.80
2023-02-27T08:07:32.091Z,36.36
2023-02-27T08:10:39.683Z,36.65
2023-02-27T08:13:59.721Z,36.52
2023-02-27T08:17:04.218Z,36.31
2023-02-27T08:20:12.332Z,36.72
2023-02-27T08:23:15.899Z,36.55
2023-02-27T08:26:21.156Z,36.74
2023-02-27T08:29:25.442Z,37.11
2023-02-27T08:32:31.089Z,36.97
2023-02-27T08:35:35.595Z,35.60
2023-02-27T08:38:39.922Z,35.43
2023-02-27T08:41:43.897Z,36.77
2023-02-27T08:44:49.026Z,37.56
2023-02-27T08:47:53.428Z,36.10
2023-02-27T08:50:58.685Z,35.10
2023-02-27T08:54:02.704Z,33.47
2023-02-27T08:57:07.865Z,33.09
2023-02-27T09:00:15.206Z,32.90
2023-02-27T09:03:19.088Z,32.90
2023-02-27T09:06:23.950Z,31.34
2023-02-27T09:09:28.781Z,32.07
2023-02-27T09:12:32.894Z,32.10
2023-02-27T09:15:38.566Z,32.09
2023-02-27T09:18:42.599Z,31.89
2023-02-27T09:21:47.506Z,31.62
2023-02-27T09:24:51.766Z,31.74
2023-02-27T09:27:57.918Z,32.82
2023-02-27T09:31:03.571Z,33.19
2023-02-27T09:34:08.090Z,32.85
2023-02-27T09:37:11.923Z,33.22
2023-02-27T09:40:33.002Z,33.87
2023-02-27T09:43:49.654Z,34.64
2023-02-27T09:46:55.504Z,35.35
2023-02-27T09:50:08.005Z,35.60
2023-02-27T09:53:24.314Z,36.19
2023-02-27T09:56:33.235Z,37.61
2023-02-27T09:59:58.611Z,39.68
2023-02-27T10:03:29.083Z,40.85
2023-02-27T10:06:49.422Z,41.12
2023-02-27T10:10:18.091Z,42.05
2023-02-27T10:13:58.724Z,42.55
2023-02-27T10:17:06.375Z,42.92
2023-02-27T10:20:21.288Z,43.57
2023-02-27T10:23:31.995Z,43.72
2023-02-27T10:26:42.433Z,43.76
2023-02-27T10:29:46.491Z,45.09
2023-02-27T10:32:55.413Z,49.25
2023-02-27T10:35:59.805Z,52.20
2023-02-27T10:39:08.185Z,53.58
2023-02-27T10:42:16.287Z,51.45
2023-02-27T10:45:19.389Z,51.81
2023-02-27T10:48:24.048Z,51.62
2023-02-27T10:51:35.536Z,49.46
2023-02-27T10:54:39.519Z,47.44
2023-02-27T10:57:46.534Z,46.61
2023-02-27T11:01:02.476Z,46.27
2023-02-27T11:04:06.686Z,48.22
2023-02-27T11:07:15.277Z,49.15
2023-02-27T11:10:27.588Z,49.50
2023-02-27T11:13:41.111Z,49.91
2023-02-27T11:16:53.252Z,49.63
2023-02-27T11:19:58.746Z,49.26
2023-02-27T11:23:17.397Z,49.67
2023-02-27T11:26:37.110Z,50.15
2023-02-27T11:30:03.561Z,49.93
2023-02-27T11:33:20.394Z,50.17
2023-02-27T11:36:42.003Z,50.69
2023-02-27T11:40:00.282Z,49.95
2023-02-27T11:43:33.641Z,48.84
2023-02-27T11:46:46.961Z,47.80
2023-02-27T11:49:56.145Z,45.64
2023-02-27T11:53:18.009Z,46.05
2023-02-27T11:56:36.024Z,45.45
2023-02-27T11:59:42.756Z,45.04
2023-02-27T12:02:56.278Z,45.54
2023-02-27T12:06:08.019Z,45.33
2023-02-27T12:09:23.098Z,44.99
2023-02-27T12:12:50.638Z,44.90
2023-02-27T12:15:58.316Z,45.05
2023-02-27T12:19:38.449Z,45.20
2023-02-27T12:22:47.646Z,45.25
2023-02-27T12:26:02.441Z,46.89
2023-02-27T12:29:32.233Z,45.19
2023-02-27T12:32:49.885Z,45.13
2023-02-27T12:36:04.795Z,45.21
2023-02-27T12:39:26.591Z,45.38
2023-02-27T12:43:10.833Z,45.44
2023-02-27T12:46:29.030Z,45.40
2023-02-27T12:49:42.745Z,45.53
2023-02-27T12:52:53.217Z,45.66
2023-02-27T12:56:12.864Z,45.55
2023-02-27T12:59:48.393Z,45.54
2023-02-27T13:03:14.516Z,45.70
2023-02-27T13:06:21.434Z,45.64
2023-02-27T13:09:37.785Z,45.76
2023-02-27T13:13:03.910Z,46.03
2023-02-27T13:16:43.881Z,45.72
2023-02-27T13:19:51.104Z,46.93
2023-02-27T13:22:55.070Z,47.07
2023-02-27T13:26:01.213Z,46.66
2023-02-27T13:29:07.312Z,45.80
2023-02-27T13:32:44.015Z,45.60
2023-02-27T13:35:48.967Z,45.49
2023-02-27T13:38:56.400Z,45.43
2023-02-27T13:42:00.979Z,45.52
2023-02-27T13:45:26.146Z,45.85
2023-02-27T13:48:35.950Z,45.84
2023-02-27T13:51:41.799Z,46.70
2023-02-27T13:54:45.904Z,46.71
2023-02-27T13:57:48.933Z,45.62
2023-02-27T14:01:00.080Z,45.28
2023-02-27T14:04:07.284Z,46.09
2023-02-27T14:07:19.365Z,46.69
2023-02-27T14:10:27.244Z,46.07
2023-02-27T14:13:46.637Z,46.00
2023-02-27T14:16:50.764Z,45.50
2023-02-27T14:19:57.445Z,44.84
2023-02-27T14:23:33.854Z,44.74
2023-02-27T14:26:40.910Z,44.87
2023-02-27T14:29:48.441Z,45.46
2023-02-27T14:32:57.939Z,45.45
2023-02-27T14:36:08.645Z,45.60
2023-02-27T14:39:29.610Z,45.58
2023-02-27T14:42:47.583Z,45.93
2023-02-27T14:45:51.044Z,46.07
2023-02-27T14:49:03.859Z,46.17
2023-02-27T14:52:25.694Z,46.63
2023-02-27T14:55:32.854Z,46.45
2023-02-27T14:58:36.228Z,46.56
2023-02-27T15:01:39.270Z,46.37
2023-02-27T15:04:43.239Z,46.34
2023-02-27T15:07:48.829Z,46.61
2023-02-27T15:10:54.214Z,46.83
2023-02-27T15:14:03.806Z,46.92
2023-02-27T15:17:24.890Z,46.87
2023-02-27T15:20:34.583Z,46.69
2023-02-27T15:23:37.928Z,46.83
2023-02-27T15:26:42.345Z,46.87
2023-02-27T15:29:53.050Z,46.85
2023-02-27T15:32:56.910Z,46.90
2023-02-27T15:36:02.872Z,46.73
2023-02-27T15:39:17.845Z,46.67
2023-02-27T15:42:31.727Z,47.09
2023-02-27T15:50:44.982Z,45.38
2023-02-27T15:54:00.363Z,45.00
2023-02-27T15:57:09.492Z,45.33
2023-02-27T16:00:18.319Z,45.65
2023-02-27T16:03:26.749Z,45.66
2023-02-27T16:06:37.873Z,45.41
2023-02-27T16:09:49.225Z,45.78
2023-02-27T16:12:56.697Z,44.85
2023-02-27T16:16:04.284Z,44.96
2023-02-27T16:19:30.062Z,44.76
2023-02-27T16:22:37.791Z,45.08
2023-02-27T16:25:47.660Z,44.97
2023-02-27T16:29:08.999Z,45.53
2023-02-27T16:32:32.704Z,45.38
2023-02-27T16:35:40.685Z,45.83
2023-02-27T16:38:44.681Z,45.70
2023-02-27T16:41:49.727Z,45.91
2023-02-27T16:44:54.156Z,45.84
2023-02-27T16:48:02.230Z,46.06
2023-02-27T16:51:12.324Z,46.22
2023-02-27T16:54:18.686Z,46.20
2023-02-27T16:57:29.253Z,46.08
2023-02-27T17:00:35.221Z,46.43
2023-02-27T17:03:40.232Z,46.80
2023-02-27T17:06:45.804Z,46.79
2023-02-27T17:09:55.871Z,47.34
2023-02-27T17:13:06.017Z,47.85
2023-02-27T17:16:15.122Z,48.27
2023-02-27T17:19:26.140Z,48.35
2023-02-27T17:22:37.018Z,48.20
2023-02-27T17:25:44.715Z,48.11
2023-02-27T17:28:54.836Z,47.76
2023-02-27T17:32:04.391Z,47.59
2023-02-27T17:35:12.881Z,47.56
2023-02-27T17:38:21.565Z,47.75
2023-02-27T17:41:29.486Z,47.87
2023-02-27T17:44:39.109Z,48.15
2023-02-27T17:47:46.533Z,48.04
2023-02-27T17:50:55.893Z,48.23
2023-02-27T17:54:09.373Z,48.19
2023-02-27T17:57:19.018Z,48.48
2023-02-27T18:00:26.762Z,48.34
2023-02-27T18:03:37.493Z,48.89
2023-02-27T18:06:46.732Z,49.11
2023-02-27T18:09:54.830Z,48.79
2023-02-27T18:13:05.585Z,48.71
2023-02-27T18:16:14.353Z,48.48
2023-02-27T18:19:26.735Z,48.81
2023-02-27T18:22:35.362Z,48.59
2023-02-27T18:25:43.188Z,49.00
2023-02-27T18:28:54.461Z,49.08
2023-02-27T18:32:03.570Z,49.25
2023-02-27T18:35:12.420Z,49.48
2023-02-27T18:38:21.180Z,49.64
2023-02-27T18:41:29.768Z,49.86
2023-02-27T18:44:37.158Z,50.35
2023-02-27T18:47:44.755Z,50.56
2023-02-27T18:50:52.275Z,50.26
2023-02-27T18:53:59.542Z,50.11
2023-02-27T18:57:08.066Z,50.03
2023-02-27T19:00:17.200Z,50.15
2023-02-27T19:03:25.071Z,50.41
2023-02-27T19:06:32.596Z,50.59
2023-02-27T19:09:39.574Z,50.17
2023-02-27T19:12:48.687Z,50.26
2023-02-27T19:15:56.184Z,50.19
2023-02-27T19:19:03.297Z,50.32
2023-02-27T19:22:09.457Z,50.03
2023-02-27T19:25:14.685Z,49.88
2023-02-27T19:28:20.159Z,49.88
2023-02-27T19:31:27.483Z,49.78
2023-02-27T19:34:33.819Z,49.80
2023-02-27T19:37:41.830Z,49.59
2023-02-27T19:40:47.580Z,49.81
2023-02-27T19:43:53.557Z,49.45
2023-02-27T19:47:00.170Z,49.51
2023-02-27T19:50:07.015Z,48.94
2023-02-27T19:53:12.649Z,49.18
2023-02-27T19:56:23.155Z,49.49
2023-02-27T19:59:29.403Z,49.37
2023-02-27T20:02:36.676Z,49.73
2023-02-27T20:05:47.395Z,49.53
2023-02-27T20:08:54.900Z,49.38
2023-02-27T20:12:05.198Z,49.78
2023-02-27T20:15:15.362Z,50.27
2023-02-27T20:18:26.008Z,50.38
2023-02-27T20:21:33.027Z,50.74
2023-02-27T20:24:44.096Z,50.74
2023-02-27T20:27:53.937Z,51.26
2023-02-27T20:31:04.006Z,52.23
2023-02-27T20:34:15.587Z,52.48
2023-02-27T20:37:26.129Z,52.64
2023-02-27T20:40:37.555Z,53.02
2023-02-27T20:43:48.896Z,53.07
2023-02-27T20:46:59.617Z,53.44
2023-02-27T20:50:10.600Z,53.53
2023-02-27T20:53:20.439Z,53.72
2023-02-27T20:56:33.772Z,53.75
2023-02-27T20:59:47.007Z,54.13
2023-02-27T21:02:57.474Z,54.33
2023-02-27T21:06:09.661Z,54.76
2023-02-27T21:09:19.197Z,54.28
2023-02-27T21:12:27.428Z,54.73
2023-02-27T21:15:40.186Z,54.76
2023-02-27T21:18:54.014Z,54.83
2023-02-27T21:22:04.241Z,54.64
2023-02-27T21:25:12.248Z,54.87
2023-02-27T21:28:23.653Z,54.93
2023-02-27T21:31:37.093Z,55.28
2023-02-27T21:34:48.162Z,55.32
2023-02-27T21:38:00.564Z,55.82
2023-02-27T21:41:17.483Z,55.77
2023-02-27T21:44:29.985Z,55.58
2023-02-27T21:47:43.354Z,55.65
2023-02-27T21:50:53.491Z,55.88
2023-02-27T21:54:04.771Z,56.08
2023-02-27T21:57:15.866Z,56.13
2023-02-27T22:00:30.933Z,56.59
2023-02-27T22:03:43.142Z,57.02
2023-02-27T22:06:55.844Z,57.10
2023-02-27T22:10:05.495Z,57.04
2023-02-27T22:13:16.163Z,57.24
2023-02-27T22:16:27.033Z,57.17
2023-02-27T22:19:38.123Z,57.28
2023-02-27T22:22:48.594Z,57.08
2023-02-27T22:26:06.872Z,57.45
2023-02-27T22:29:16.373Z,57.42
2023-02-27T22:32:24.939Z,57.57
2023-02-27T22:35:30.725Z,57.81
2023-02-27T22:38:34.849Z,57.74
2023-02-27T22:41:45.235Z,57.85
2023-02-27T22:44:58.267Z,58.06
2023-02-27T22:48:08.837Z,58.43
2023-02-27T22:51:20.516Z,58.51
2023-02-27T22:54:33.246Z,58.79
2023-02-27T22:57:46.062Z,58.72
2023-02-27T23:00:52.987Z,58.85
2023-02-27T23:03:59.111Z,58.81
2023-02-27T23:07:07.935Z,59.01
2023-02-27T23:10:20.649Z,59.30
2023-02-27T23:13:32.170Z,59.27
2023-02-27T23:16:42.506Z,59.04
2023-02-27T23:19:56.246Z,59.31
2023-02-27T23:23:08.668Z,59.43
2023-02-27T23:26:19.430Z,59.53
2023-02-27T23:29:25.444Z,59.02
2023-02-27T23:32:29.262Z,59.15
2023-02-27T23:35:33.355Z,58.92
2023-02-27T23:38:37.422Z,58.64
2023-02-27T23:41:42.378Z,58.78
2023-02-27T23:44:46.903Z,58.54
2023-02-27T23:47:58.374Z,58.17
2023-02-27T23:51:07.113Z,58.23
2023-02-27T23:54:11.531Z,58.06
2023-02-27T23:57:15.258Z,58.15
